Time;durP1;ratioP1;P1;durP2;ratioP2;P2;SDS_P1;SDS_P2;PMS_P1;PMS_P2;Temp;Humidity;BMP_temperature;BMP_pressure;BME280_temperature;BME280_humidity;BME280_pressure;Samples;Min_cycle;Max_cycle;Signal;HPM_P1;HPM_P2
2024/01/14 00:09:17;;;;;;;3.72;2.05;;;;;;;19.17;44.05;96260.84;20823388;28;20079;-72
2024/01/14 00:19:37;;;;;;;2.60;1.80;;;;;;;19.10;44.01;96244.41;20789464;28;20060;-73
2024/01/14 00:29:57;;;;;;;3.33;2.00;;;;;;;19.11;43.85;96226.28;20743257;28;20053;-72
2024/01/14 00:40:17;;;;;;;3.80;2.00;;;;;;;19.05;43.99;96236.53;20826679;28;20049;-73
2024/01/14 00:50:36;;;;;;;3.10;1.90;;;;;;;19.02;44.01;96206.72;20802778;28;20057;-72
2024/01/14 01:00:56;;;;;;;2.53;1.80;;;;;;;18.97;43.73;96196.91;20793096;28;20049;-72
2024/01/14 01:11:16;;;;;;;1.83;1.63;;;;;;;18.96;43.70;96189.94;20809848;28;20449;-72
2024/01/14 01:21:36;;;;;;;5.13;1.70;;;;;;;18.89;43.74;96165.41;20779926;28;20075;-72
2024/01/14 01:31:56;;;;;;;2.60;1.50;;;;;;;18.85;43.50;96149.09;20781805;28;20054;-72
2024/01/14 01:42:15;;;;;;;2.75;1.40;;;;;;;18.78;43.84;96129.94;20754005;28;20053;-72
2024/01/14 01:52:35;;;;;;;2.67;1.80;;;;;;;18.74;43.51;96108.25;20780001;28;20058;-72
2024/01/14 02:02:55;;;;;;;1.95;1.38;;;;;;;18.72;43.65;96105.09;20755877;28;20054;-72
2024/01/14 02:13:14;;;;;;;1.73;1.40;;;;;;;18.68;43.64;96106.06;20806082;28;20057;-73
2024/01/14 02:23:39;;;;;;;2.10;1.40;;;;;;;18.65;43.42;96099.44;20826797;28;21078;-72
2024/01/14 02:33:58;;;;;;;1.73;1.40;;;;;;;18.63;43.60;96103.59;20809783;28;20038;-72
2024/01/14 02:44:19;;;;;;;2.65;1.40;;;;;;;18.60;43.44;96085.38;20776745;28;20054;-72
2024/01/14 02:54:39;;;;;;;1.40;1.30;;;;;;;18.54;43.67;96079.41;20738742;28;20057;-72
2024/01/14 03:04:59;;;;;;;1.60;1.33;;;;;;;18.50;43.58;96073.13;20783964;28;20058;-72
2024/01/14 03:15:18;;;;;;;1.30;1.20;;;;;;;18.47;43.65;96063.00;20763902;28;20509;-72
2024/01/14 03:25:38;;;;;;;1.25;1.10;;;;;;;18.45;43.39;96041.75;20812177;28;20054;-72
2024/01/14 03:36:00;;;;;;;1.48;1.25;;;;;;;18.43;43.36;96043.22;20805569;28;20493;-72
2024/01/14 03:46:20;;;;;;;1.80;1.50;;;;;;;18.39;43.50;96016.13;20785627;28;20405;-72
2024/01/14 03:56:39;;;;;;;1.10;1.00;;;;;;;18.35;43.45;96015.25;20751273;28;20060;-72
2024/01/14 04:06:58;;;;;;;1.35;1.20;;;;;;;18.32;43.38;96002.41;20799685;28;20061;-72
2024/01/14 04:17:17;;;;;;;2.13;1.27;;;;;;;18.29;43.34;95990.41;20805426;28;20050;-72
2024/01/14 04:27:37;;;;;;;1.58;1.00;;;;;;;18.27;43.30;95981.84;20797850;28;20104;-72
2024/01/14 04:37:57;;;;;;;1.65;1.40;;;;;;;18.23;43.21;95994.44;20804450;28;20054;-72
2024/01/14 04:48:16;;;;;;;1.20;1.08;;;;;;;18.20;43.10;95987.00;20816861;28;20509;-72
2024/01/14 04:58:36;;;;;;;1.48;1.15;;;;;;;18.15;43.25;95962.94;20804014;28;20052;-72
2024/01/14 05:08:55;;;;;;;1.10;1.00;;;;;;;18.13;43.23;95955.22;20738998;28;20127;-72
2024/01/14 05:19:15;;;;;;;1.27;1.10;;;;;;;18.12;43.20;95944.78;20772074;28;20103;-72
2024/01/14 05:29:34;;;;;;;1.20;1.10;;;;;;;18.11;43.12;95943.19;20804684;28;20058;-72
2024/01/14 05:39:54;;;;;;;1.10;1.00;;;;;;;18.08;43.04;95950.03;20776656;28;20080;-73
2024/01/14 05:50:13;;;;;;;1.10;1.00;;;;;;;18.02;43.27;95950.59;20823004;28;20061;-73
2024/01/14 06:00:33;;;;;;;1.17;1.00;;;;;;;18.02;43.07;95969.47;20760719;28;20057;-74
2024/01/14 06:10:53;;;;;;;1.02;0.95;;;;;;;18.00;43.00;95961.72;20760205;28;20050;-73
2024/01/14 06:21:13;;;;;;;1.20;1.10;;;;;;;18.01;43.08;95954.41;20773532;28;20049;-73
2024/01/14 06:31:32;;;;;;;1.73;1.00;;;;;;;18.06;43.16;95973.06;20805113;28;20492;-73
2024/01/14 06:41:52;;;;;;;1.17;1.08;;;;;;;18.10;42.91;95949.72;20849785;28;20042;-73
2024/01/14 06:52:11;;;;;;;1.05;0.98;;;;;;;18.12;42.53;95937.47;20713795;28;20057;-73
2024/01/14 07:02:31;;;;;;;0.93;0.88;;;;;;;18.22;42.67;95946.25;20776738;28;20071;-73
2024/01/14 07:12:51;;;;;;;0.88;0.85;;;;;;;18.30;42.65;95951.50;20763543;28;20045;-73
2024/01/14 07:23:11;;;;;;;1.10;1.00;;;;;;;18.38;42.39;95953.34;20753788;28;20046;-73
2024/01/14 07:33:30;;;;;;;1.27;0.90;;;;;;;18.50;42.26;95957.13;20777446;28;20419;-73
2024/01/14 07:43:50;;;;;;;1.17;0.93;;;;;;;18.60;42.14;95956.69;20768806;28;20395;-73
2024/01/14 07:54:09;;;;;;;1.92;1.55;;;;;;;18.67;47.24;95954.22;20750364;28;20103;-73
2024/01/14 08:04:29;;;;;;;1.35;1.25;;;;;;;18.75;47.50;95956.00;20783657;28;20049;-73
2024/01/14 08:14:48;;;;;;;1.50;1.40;;;;;;;18.92;48.34;95948.81;20751182;28;20046;-73
2024/01/14 08:25:09;;;;;;;1.38;1.27;;;;;;;19.07;47.12;95944.63;20769420;28;20068;-73
2024/01/14 08:35:29;;;;;;;2.88;1.13;;;;;;;19.14;47.04;95967.22;20765695;28;20054;-73
2024/01/14 08:45:48;;;;;;;1.35;1.25;;;;;;;19.25;46.92;95961.31;20716450;28;20134;-73
2024/01/14 08:56:08;;;;;;;5.38;1.35;;;;;;;19.39;47.04;95963.66;20724465;28;20046;-73
2024/01/14 09:06:27;;;;;;;1.70;1.25;;;;;;;19.47;46.50;95966.22;20719795;28;20050;-73
2024/01/14 09:16:48;;;;;;;3.70;1.60;;;;;;;19.49;44.23;95960.47;20770832;28;20049;-73
2024/01/14 09:27:08;;;;;;;3.45;1.70;;;;;;;19.57;43.94;95973.03;20736860;28;20050;-73
2024/01/14 09:37:27;;;;;;;1.83;1.45;;;;;;;19.59;43.52;95973.50;20693796;28;20547;-73
2024/01/14 09:47:47;;;;;;;7.15;1.75;;;;;;;19.66;43.33;95960.19;20718440;28;20140;-74
2024/01/14 09:58:08;;;;;;;2.08;1.25;;;;;;;19.68;43.26;95949.00;20765758;28;20050;-73
2024/01/14 10:08:28;;;;;;;1.95;1.75;;;;;;;19.77;42.50;95938.88;20779672;28;20061;-73
2024/01/14 10:18:48;;;;;;;7.47;4.57;;;;;;;19.89;44.08;95941.50;20789748;28;20046;-75
2024/01/14 10:29:08;;;;;;;6.05;3.33;;;;;;;19.99;38.06;95917.78;20820387;28;20054;-77
2024/01/14 10:39:31;;;;;;;5.93;2.60;;;;;;;20.01;40.50;95905.50;20795301;28;20061;-77
2024/01/14 10:49:51;;;;;;;3.03;2.50;;;;;;;20.12;41.32;95889.53;20776136;28;20053;-77
2024/01/14 11:00:12;;;;;;;89.28;27.73;;;;;;;20.32;49.45;95882.28;20772101;28;20047;-77
2024/01/14 11:10:32;;;;;;;61.67;19.52;;;;;;;20.45;48.28;95891.09;20732616;28;20060;-77
2024/01/14 11:21:01;;;;;;;25.20;11.60;;;;;;;19.26;35.88;95893.47;20728270;28;20046;-77
2024/01/14 11:31:21;;;;;;;34.45;13.45;;;;;;;18.21;46.91;95893.44;20746799;28;20050;-74
2024/01/14 11:41:43;;;;;;;25.80;10.82;;;;;;;19.92;43.74;95864.34;20689634;28;20094;-74
2024/01/14 11:52:06;;;;;;;22.38;9.60;;;;;;;20.31;43.74;95857.16;20731236;28;20049;-79
2024/01/14 12:02:26;;;;;;;21.17;8.75;;;;;;;20.41;44.54;95857.75;20735899;28;20077;-74
2024/01/14 12:12:45;;;;;;;17.20;7.30;;;;;;;20.50;44.90;95847.50;20748112;28;20720;-74
2024/01/14 12:23:06;;;;;;;16.30;6.88;;;;;;;20.53;43.40;95833.28;20734739;28;20053;-73
2024/01/14 12:33:26;;;;;;;12.35;5.90;;;;;;;20.51;41.84;95827.44;20755748;28;20460;-73
2024/01/14 12:43:45;;;;;;;11.18;5.70;;;;;;;20.43;41.64;95823.03;20756305;28;20058;-73
2024/01/14 12:54:04;;;;;;;10.32;4.88;;;;;;;20.43;41.76;95788.63;20721066;28;20598;-73
2024/01/14 13:04:26;;;;;;;10.55;5.00;;;;;;;20.41;41.70;95771.97;20747759;28;20065;-73
2024/01/14 13:14:46;;;;;;;11.30;4.78;;;;;;;20.39;41.72;95778.88;20749383;28;20491;-75
2024/01/14 13:25:06;;;;;;;11.10;4.40;;;;;;;20.38;42.07;95755.66;20732295;28;20128;-73
2024/01/14 13:35:25;;;;;;;8.27;4.05;;;;;;;20.32;42.13;95763.28;20753662;28;20057;-73
2024/01/14 13:45:45;;;;;;;7.70;4.60;;;;;;;20.35;42.71;95763.34;20763057;28;20111;-74
2024/01/14 13:56:04;;;;;;;7.18;4.28;;;;;;;20.33;42.45;95767.56;20697134;28;20081;-77
2024/01/14 14:06:24;;;;;;;8.52;3.58;;;;;;;20.31;42.78;95767.13;20760926;28;20069;-73
2024/01/14 14:16:44;;;;;;;9.35;3.58;;;;;;;20.27;43.30;95756.22;20770376;28;20410;-79
2024/01/14 14:27:04;;;;;;;5.15;3.47;;;;;;;20.26;43.47;95748.47;20723038;28;20053;-80
2024/01/14 14:37:26;;;;;;;7.93;4.18;;;;;;;20.20;40.72;95744.47;20765684;28;20051;-76
2024/01/14 14:47:46;;;;;;;7.05;3.85;;;;;;;20.09;40.97;95731.50;20782644;28;20060;-76
2024/01/14 14:58:06;;;;;;;7.13;3.95;;;;;;;20.04;40.80;95725.59;20768162;28;20085;-73
2024/01/14 15:08:26;;;;;;;6.75;4.20;;;;;;;20.02;38.11;95727.88;20736939;28;20193;-73
2024/01/14 15:18:45;;;;;;;7.57;3.92;;;;;;;19.92;41.28;95691.34;20749305;28;20046;-73
2024/01/14 15:29:05;;;;;;;8.27;3.80;;;;;;;19.90;41.45;95683.59;20768165;28;20058;-75
2024/01/14 15:39:25;;;;;;;9.57;3.83;;;;;;;19.90;41.72;95689.00;20728405;28;20061;-76
2024/01/14 15:49:45;;;;;;;5.93;3.70;;;;;;;19.85;42.06;95662.22;20727676;28;20474;-76
2024/01/14 16:00:06;;;;;;;8.25;3.83;;;;;;;19.85;42.54;95673.03;20716497;28;20042;-76
2024/01/14 16:10:29;;;;;;;10.43;4.30;;;;;;;19.88;44.31;95658.06;20683643;28;20046;-84
2024/01/14 16:20:49;;;;;;;10.15;3.60;;;;;;;19.84;44.57;95657.97;20709072;28;20046;-82
2024/01/14 16:31:08;;;;;;;9.02;3.75;;;;;;;19.81;44.52;95639.75;20697801;28;20105;-77
2024/01/14 16:41:28;;;;;;;7.63;3.50;;;;;;;19.74;44.46;95618.78;20714530;28;20054;-81
2024/01/14 16:51:47;;;;;;;6.85;3.47;;;;;;;19.71;44.36;95610.56;20683587;28;20046;-84
2024/01/14 17:02:07;;;;;;;6.03;3.25;;;;;;;19.69;44.34;95599.31;20685549;28;20058;-76
2024/01/14 17:12:27;;;;;;;6.18;3.13;;;;;;;19.71;44.40;95584.34;20712668;28;20058;-76
2024/01/14 17:22:46;;;;;;;5.95;3.17;;;;;;;19.72;44.29;95558.13;20712125;28;20065;-72
2024/01/14 17:33:06;;;;;;;4.72;3.00;;;;;;;19.78;44.17;95561.31;20713422;28;20058;-72
2024/01/14 17:43:25;;;;;;;5.22;2.97;;;;;;;19.81;43.79;95539.00;20738474;28;20495;-72
2024/01/14 17:53:45;;;;;;;5.45;3.00;;;;;;;19.86;43.86;95525.97;20688415;28;20058;-72
2024/01/14 18:04:04;;;;;;;4.72;2.92;;;;;;;19.94;43.39;95508.75;20731900;28;20061;-74
2024/01/14 18:14:24;;;;;;;4.90;3.13;;;;;;;19.97;43.32;95498.38;20716958;28;20054;-73
2024/01/14 18:24:45;;;;;;;5.63;2.95;;;;;;;19.98;42.96;95475.63;20691716;28;20055;-72
2024/01/14 18:35:05;;;;;;;4.85;2.80;;;;;;;20.11;43.11;95466.16;20682131;28;20046;-73
2024/01/14 18:45:28;;;;;;;4.03;2.30;;;;;;;20.21;42.99;95453.97;20687518;28;20054;-72
2024/01/14 18:55:48;;;;;;;4.75;2.40;;;;;;;20.28;42.75;95449.47;20665072;28;20435;-71
2024/01/14 19:06:09;;;;;;;6.45;2.20;;;;;;;20.35;42.69;95433.38;20710656;28;20062;-72
2024/01/14 19:16:29;;;;;;;3.72;2.20;;;;;;;20.41;42.55;95433.84;20718011;28;20042;-72
2024/01/14 19:26:49;;;;;;;3.20;1.75;;;;;;;20.47;42.52;95426.97;20673430;28;20050;-72
2024/01/14 19:37:09;;;;;;;4.13;1.98;;;;;;;20.49;42.19;95410.41;20686840;28;20603;-71
2024/01/14 19:47:29;;;;;;;3.47;2.20;;;;;;;20.55;42.89;95400.81;20707763;28;20556;-74
2024/01/14 19:57:49;;;;;;;6.68;2.72;;;;;;;20.58;43.87;95392.00;20754178;28;20064;-75
2024/01/14 20:08:08;;;;;;;6.57;2.92;;;;;;;20.65;42.72;95385.91;20752481;28;20046;-74
2024/01/14 20:18:28;;;;;;;4.82;2.33;;;;;;;20.53;42.62;95360.59;20730363;28;20038;-72
2024/01/14 20:28:47;;;;;;;3.55;2.50;;;;;;;20.49;43.24;95351.66;20706600;28;20065;-72
2024/01/14 20:39:08;;;;;;;4.47;2.40;;;;;;;20.49;43.47;95326.53;20688417;28;20046;-72
2024/01/14 20:49:28;;;;;;;5.80;2.10;;;;;;;20.44;43.79;95330.31;20695235;28;20636;-71
2024/01/14 20:59:49;;;;;;;5.82;2.55;;;;;;;20.39;43.46;95314.41;20732351;28;20073;-72
2024/01/14 21:10:09;;;;;;;4.70;2.30;;;;;;;20.38;43.64;95304.72;20792379;28;20526;-73
2024/01/14 21:20:29;;;;;;;4.57;2.10;;;;;;;20.35;44.19;95298.13;20790553;28;20045;-73
2024/01/14 21:30:49;;;;;;;4.85;2.10;;;;;;;20.35;44.71;95276.50;20816523;28;20127;-72
2024/01/14 21:41:09;;;;;;;3.72;2.13;;;;;;;20.37;44.80;95268.03;20738746;28;20049;-73
2024/01/14 21:51:28;;;;;;;3.45;2.00;;;;;;;20.44;44.53;95262.69;20758606;28;20064;-72
2024/01/14 22:01:48;;;;;;;3.17;1.90;;;;;;;20.46;44.19;95238.75;20764855;28;20073;-74
2024/01/14 22:12:07;;;;;;;4.50;2.00;;;;;;;20.46;44.09;95219.81;20772881;28;20053;-75
2024/01/14 22:22:27;;;;;;;4.43;2.10;;;;;;;20.53;43.58;95236.16;20787407;28;20096;-74
2024/01/14 22:32:46;;;;;;;3.25;1.83;;;;;;;20.55;43.57;95238.50;20803151;28;20050;-74
2024/01/14 22:43:06;;;;;;;3.72;1.83;;;;;;;20.63;43.39;95215.03;20763596;28;20617;-74
2024/01/14 22:53:25;;;;;;;2.08;1.70;;;;;;;20.61;43.28;95212.69;20802006;28;20045;-74
2024/01/14 23:03:48;;;;;;;3.35;1.92;;;;;;;20.61;43.10;95193.75;20808288;28;20057;-74
2024/01/14 23:14:07;;;;;;;2.67;1.75;;;;;;;20.57;43.07;95197.56;20807289;28;20053;-74
2024/01/14 23:24:28;;;;;;;2.63;1.50;;;;;;;20.56;43.01;95177.81;20776774;28;20057;-74
2024/01/14 23:34:47;;;;;;;2.55;1.75;;;;;;;20.51;42.88;95176.22;20815007;28;20058;-74
2024/01/14 23:45:07;;;;;;;2.55;1.60;;;;;;;20.54;42.93;95163.88;20794585;28;20073;-74
2024/01/14 23:55:26;;;;;;;2.08;1.40;;;;;;;20.45;42.99;95149.88;20747384;28;20046;-74
